Time;durP1;ratioP1;P1;durP2;ratioP2;P2;SDS_P1;SDS_P2;PMS_P1;PMS_P2;Temp;Humidity;BMP_temperature;BMP_pressure;BME280_temperature;BME280_humidity;BME280_pressure;Samples;Min_cycle;Max_cycle;Signal;HPM_P1;HPM_P2
2021/01/30 00:02:03;;;;;;;21.48;10.00;;;5.00;93.50;;;;;;5051718;28;20025;-63
2021/01/30 00:04:29;;;;;;;13.00;7.93;;;5.30;93.50;;;;;;5034446;28;20498;-64
2021/01/30 00:06:59;;;;;;;12.02;6.55;;;5.40;93.20;;;;;;5034872;28;20036;-63
2021/01/30 00:09:26;;;;;;;13.73;6.38;;;5.40;91.20;;;;;;5034354;28;20037;-62
2021/01/30 00:11:55;;;;;;;16.77;7.05;;;5.30;91.40;;;;;;5034165;28;20032;-63
2021/01/30 00:14:25;;;;;;;11.50;6.35;;;5.10;91.50;;;;;;5052369;28;20041;-67
2021/01/30 00:16:51;;;;;;;11.25;6.43;;;5.00;91.80;;;;;;5051317;28;20045;-67
2021/01/30 00:19:17;;;;;;;13.48;7.25;;;5.00;92.10;;;;;;5034057;28;20033;-68
2021/01/30 00:21:50;;;;;;;14.23;7.00;;;4.90;92.30;;;;;;5016981;28;20044;-64
2021/01/30 00:24:15;;;;;;;13.77;7.07;;;4.80;92.60;;;;;;5051410;28;20043;-63
2021/01/30 00:27:02;;;;;;;14.75;7.00;;;4.90;92.60;;;;;;5051252;28;20037;-65
2021/01/30 00:29:31;;;;;;;13.40;6.65;;;4.80;92.80;;;;;;5051409;28;20099;-64
2021/01/30 00:31:57;;;;;;;17.08;7.50;;;4.70;92.90;;;;;;5051655;28;20097;-63
2021/01/30 00:34:24;;;;;;;12.80;6.57;;;4.80;92.90;;;;;;5050468;28;20119;-62
2021/01/30 00:36:55;;;;;;;10.13;7.03;;;4.80;93.30;;;;;;5050965;28;20602;-62
2021/01/30 00:39:21;;;;;;;12.25;6.88;;;4.70;93.70;;;;;;5051178;28;20087;-62
2021/01/30 00:41:47;;;;;;;13.63;7.88;;;4.70;93.90;;;;;;5051187;28;20033;-64
2021/01/30 00:44:16;;;;;;;12.90;7.18;;;4.70;93.90;;;;;;5031357;28;20033;-63
2021/01/30 00:46:42;;;;;;;14.38;7.20;;;4.90;93.70;;;;;;5035664;28;20087;-63
2021/01/30 00:49:08;;;;;;;14.23;7.45;;;4.90;93.80;;;;;;5051350;28;20033;-63
2021/01/30 00:51:34;;;;;;;13.20;6.85;;;4.90;93.70;;;;;;5050742;28;20053;-64
2021/01/30 00:53:59;;;;;;;12.88;7.13;;;5.00;93.50;;;;;;5051041;28;20377;-64
2021/01/30 00:56:25;;;;;;;13.05;7.00;;;5.20;93.20;;;;;;5032893;28;20112;-64
2021/01/30 00:58:50;;;;;;;13.32;7.32;;;5.20;92.80;;;;;;5051141;28;20060;-64
2021/01/30 01:01:17;;;;;;;12.80;8.38;;;5.30;92.80;;;;;;5050971;28;20061;-64
2021/01/30 01:03:42;;;;;;;19.02;8.85;;;5.30;92.50;;;;;;5049046;28;20028;-63
2021/01/30 01:06:08;;;;;;;15.70;10.05;;;5.10;91.70;;;;;;5050946;28;20430;-63
2021/01/30 01:08:34;;;;;;;26.13;13.98;;;4.80;92.10;;;;;;5050436;28;20049;-63
2021/01/30 01:11:00;;;;;;;25.45;15.63;;;4.40;91.30;;;;;;5016716;28;20040;-63
2021/01/30 01:13:27;;;;;;;26.35;16.02;;;4.00;91.40;;;;;;5050695;28;20041;-61
2021/01/30 01:15:53;;;;;;;28.25;18.65;;;3.80;91.70;;;;;;5054228;28;20056;-63
2021/01/30 01:18:19;;;;;;;39.83;23.50;;;3.40;91.70;;;;;;5054495;28;20073;-63
2021/01/30 01:20:45;;;;;;;32.63;21.40;;;2.90;91.80;;;;;;5054132;28;20032;-63
2021/01/30 01:23:10;;;;;;;35.40;21.98;;;2.50;91.90;;;;;;5054280;28;20123;-63
2021/01/30 01:25:36;;;;;;;33.53;21.42;;;2.10;91.80;;;;;;5065923;22;20120;-80
2021/01/30 01:28:02;;;;;;;32.83;21.52;;;1.80;92.20;;;;;;5041909;28;20135;-79
2021/01/30 01:30:28;;;;;;;45.08;23.67;;;1.80;92.90;;;;;;5041769;28;20086;-79
2021/01/30 01:32:54;;;;;;;38.67;20.65;;;1.70;93.80;;;;;;5047658;28;20086;-79
2021/01/30 01:35:27;;;;;;;41.45;22.02;;;1.80;92.70;;;;;;5033041;28;20025;-80
2021/01/30 01:37:53;;;;;;;27.70;19.02;;;1.90;93.30;;;;;;5050522;28;20055;-80
2021/01/30 01:40:24;;;;;;;29.13;18.20;;;1.90;92.50;;;;;;5050174;28;20056;-80
2021/01/30 01:42:56;;;;;;;30.75;18.38;;;1.90;92.40;;;;;;5042706;28;20033;-79
2021/01/30 01:45:21;;;;;;;24.83;15.73;;;1.80;93.00;;;;;;5027263;28;20463;-80
2021/01/30 01:47:47;;;;;;;25.75;15.85;;;2.00;92.00;;;;;;5009443;28;20082;-81
2021/01/30 01:50:25;;;;;;;23.58;15.30;;;1.80;91.50;;;;;;5011047;28;20090;-82
2021/01/30 01:52:56;;;;;;;23.67;15.80;;;1.90;91.50;;;;;;5059854;28;20037;-81
2021/01/30 01:55:22;;;;;;;23.10;15.15;;;1.70;91.60;;;;;;5042005;28;20029;-79
2021/01/30 01:57:51;;;;;;;21.05;14.10;;;1.70;91.90;;;;;;5026521;28;20033;-80
2021/01/30 02:00:20;;;;;;;22.02;14.25;;;1.60;91.70;;;;;;5042916;28;20082;-80
2021/01/30 02:02:49;;;;;;;20.17;14.70;;;1.50;92.00;;;;;;5026635;28;20529;-80
2021/01/30 02:05:25;;;;;;;20.85;13.65;;;1.50;92.40;;;;;;5017086;28;20037;-78
2021/01/30 02:07:53;;;;;;;22.55;15.00;;;1.30;92.00;;;;;;5029548;28;20052;-80
2021/01/30 02:10:23;;;;;;;22.35;15.38;;;1.20;92.40;;;;;;5061634;28;20021;-79
2021/01/30 02:12:50;;;;;;;23.67;15.52;;;1.20;92.10;;;;;;5042776;28;20037;-79
2021/01/30 02:15:19;;;;;;;22.17;15.55;;;1.10;92.50;;;;;;5041909;28;20076;-78
2021/01/30 02:18:02;;;;;;;22.92;15.50;;;1.00;92.70;;;;;;5024574;28;20487;-78
2021/01/30 02:20:53;;;;;;;23.83;16.40;;;1.00;92.40;;;;;;5042225;28;20033;-78
2021/01/30 02:23:50;;;;;;;24.67;16.50;;;1.00;92.60;;;;;;5042317;28;20479;-79
2021/01/30 02:26:50;;;;;;;25.17;17.15;;;1.00;92.50;;;;;;5038639;28;20090;-79
2021/01/30 02:29:18;;;;;;;24.05;16.25;;;0.90;92.50;;;;;;5038468;28;20523;-78
2021/01/30 02:32:16;;;;;;;23.17;17.40;;;0.80;92.50;;;;;;5039805;28;20059;-78
2021/01/30 02:35:03;;;;;;;26.27;15.57;;;0.80;92.20;;;;;;5039104;28;20025;-80
2021/01/30 02:37:36;;;;;;;20.92;15.85;;;0.80;92.30;;;;;;5039847;28;20044;-81
2021/01/30 02:40:09;;;;;;;23.25;15.93;;;0.60;92.30;;;;;;5024302;28;20029;-79
2021/01/30 02:42:42;;;;;;;22.42;15.85;;;0.70;92.20;;;;;;5022419;28;20044;-79
2021/01/30 02:45:14;;;;;;;23.33;15.52;;;0.60;92.00;;;;;;5002940;28;20097;-77
2021/01/30 02:47:44;;;;;;;20.13;14.32;;;0.60;92.00;;;;;;5017997;28;20029;-77
2021/01/30 02:50:20;;;;;;;20.15;15.23;;;0.60;91.70;;;;;;4988837;28;20396;-78
2021/01/30 02:52:50;;;;;;;25.20;16.45;;;0.60;91.80;;;;;;5043238;28;20037;-76
2021/01/30 02:55:18;;;;;;;22.25;16.90;;;0.40;92.00;;;;;;5001324;28;20055;-77
2021/01/30 02:57:45;;;;;;;23.83;16.77;;;0.50;92.00;;;;;;5017577;28;20052;-77
2021/01/30 03:00:16;;;;;;;21.55;16.13;;;0.30;92.20;;;;;;5017977;28;20053;-77
2021/01/30 03:02:42;;;;;;;21.45;14.73;;;0.40;92.00;;;;;;5036932;28;20075;-76
2021/01/30 03:05:10;;;;;;;18.80;14.55;;;0.20;92.10;;;;;;5037115;28;20029;-77
2021/01/30 03:08:13;;;;;;;21.25;15.20;;;0.20;92.10;;;;;;5036479;28;20037;-76
2021/01/30 03:10:55;;;;;;;21.35;15.27;;;0.20;92.00;;;;;;5040883;28;20513;-76
2021/01/30 03:13:29;;;;;;;20.58;15.57;;;0.20;92.20;;;;;;5056630;28;20085;-78
2021/01/30 03:16:03;;;;;;;21.77;15.63;;;0.20;92.10;;;;;;5057261;28;20078;-78
2021/01/30 03:18:39;;;;;;;22.45;15.35;;;0.10;92.00;;;;;;5040710;28;20029;-79
2021/01/30 03:21:10;;;;;;;22.90;15.80;;;0.20;92.30;;;;;;5037279;28;20502;-78
2021/01/30 03:23:36;;;;;;;22.33;16.58;;;0.10;92.40;;;;;;5037379;28;20514;-78
2021/01/30 03:26:06;;;;;;;23.02;15.73;;;0.00;92.70;;;;;;5037454;28;20041;-77
2021/01/30 03:28:32;;;;;;;23.33;17.08;;;-0.10;92.70;;;;;;5019281;28;20045;-80
2021/01/30 03:30:59;;;;;;;23.20;15.82;;;-0.10;92.70;;;;;;5068746;28;20040;-80
2021/01/30 03:33:28;;;;;;;22.75;16.45;;;-0.10;92.70;;;;;;5078143;28;20040;-80
2021/01/30 03:35:54;;;;;;;24.20;16.30;;;-0.10;92.90;;;;;;5059818;28;20036;-80
2021/01/30 03:38:20;;;;;;;25.38;16.35;;;0.00;92.60;;;;;;5065313;28;20534;-79
2021/01/30 03:40:46;;;;;;;26.98;18.42;;;0.00;92.20;;;;;;5022637;28;20033;-79
2021/01/30 03:43:12;;;;;;;24.40;16.42;;;-0.10;92.20;;;;;;5006402;28;20048;-80
2021/01/30 03:45:38;;;;;;;25.60;17.60;;;-0.10;92.10;;;;;;5023163;28;20029;-80
2021/01/30 03:48:04;;;;;;;24.90;17.73;;;-0.10;92.10;;;;;;5020264;28;20049;-80
2021/01/30 03:50:30;;;;;;;23.02;16.02;;;-0.10;92.00;;;;;;5029328;28;20074;-79
2021/01/30 03:52:56;;;;;;;27.23;18.67;;;-0.10;91.90;;;;;;5036814;28;20038;-79
2021/01/30 03:55:23;;;;;;;22.63;17.25;;;-0.20;92.20;;;;;;5017547;28;20029;-79
2021/01/30 03:57:49;;;;;;;23.08;16.42;;;-0.20;92.00;;;;;;5002058;28;20037;-78
2021/01/30 04:00:19;;;;;;;26.13;18.60;;;-0.10;91.80;;;;;;5017646;28;20029;-79
2021/01/30 04:02:45;;;;;;;24.77;16.90;;;-0.10;91.70;;;;;;5017254;28;20087;-80
2021/01/30 04:05:12;;;;;;;23.95;16.20;;;-0.10;91.70;;;;;;5002110;28;20037;-80
2021/01/30 04:07:38;;;;;;;24.45;16.02;;;-0.10;91.60;;;;;;5005652;28;20041;-79
2021/01/30 04:10:07;;;;;;;24.63;16.90;;;-0.30;91.70;;;;;;5037422;28;20573;-80
2021/01/30 04:12:33;;;;;;;25.60;17.02;;;-0.40;92.00;;;;;;5038179;28;20049;-80
2021/01/30 04:15:00;;;;;;;26.13;17.80;;;-0.30;92.10;;;;;;5054795;28;20408;-79
2021/01/30 04:17:26;;;;;;;22.15;16.42;;;-0.30;92.00;;;;;;5037724;28;20037;-80
2021/01/30 04:19:51;;;;;;;23.13;15.45;;;-0.30;91.80;;;;;;5005793;28;20551;-79
2021/01/30 04:22:17;;;;;;;23.58;16.25;;;-0.30;91.70;;;;;;5037786;28;20060;-79
2021/01/30 04:24:44;;;;;;;27.20;17.67;;;-0.30;91.70;;;;;;5005210;28;20076;-80
2021/01/30 04:27:12;;;;;;;23.15;15.70;;;-0.30;91.70;;;;;;5022306;28;20037;-80
2021/01/30 04:29:37;;;;;;;22.50;15.25;;;-0.30;91.60;;;;;;5021806;28;20112;-80
2021/01/30 04:32:03;;;;;;;23.42;16.08;;;-0.40;91.50;;;;;;5022537;28;20432;-80
2021/01/30 04:34:29;;;;;;;24.40;16.48;;;-0.40;91.80;;;;;;5039199;28;20041;-80
2021/01/30 04:36:55;;;;;;;21.55;15.52;;;-0.30;91.70;;;;;;5009087;28;20083;-79
2021/01/30 04:39:20;;;;;;;20.83;15.57;;;-0.30;91.80;;;;;;5055439;28;20107;-79
2021/01/30 04:42:39;;;;;;;22.20;14.65;;;-0.30;91.50;;;;;;5037844;28;20021;-80
2021/01/30 04:45:14;;;;;;;23.90;15.02;;;-0.10;91.30;;;;;;4942723;28;20038;-81
2021/01/30 04:47:44;;;;;;;;;;;-0.10;91.20;;;;;;4959357;28;20097;-79
2021/01/30 04:50:25;;;;;;;23.77;14.45;;;-0.20;91.20;;;;;;5020766;28;19905;-79
2021/01/30 04:53:32;;;;;;;20.02;13.63;;;-0.20;91.40;;;;;;5041897;28;20032;-79
2021/01/30 04:56:08;;;;;;;20.67;13.82;;;-0.40;91.40;;;;;;5059979;28;20033;-78
2021/01/30 04:58:46;;;;;;;21.15;14.90;;;-0.40;91.60;;;;;;5064512;28;20542;-79
2021/01/30 05:01:40;;;;;;;18.48;12.70;;;-0.40;91.60;;;;;;5046654;28;20041;-78
2021/01/30 05:04:18;;;;;;;21.45;13.85;;;-0.30;91.20;;;;;;5042503;28;20399;-79
2021/01/30 05:07:12;;;;;;;18.77;13.07;;;-0.30;91.10;;;;;;5041106;28;20036;-78
2021/01/30 05:10:20;;;;;;;21.15;13.73;;;-0.30;90.90;;;;;;5042406;28;20029;-80
2021/01/30 05:13:03;;;;;;;19.42;12.90;;;-0.20;90.80;;;;;;4978350;28;20505;-79
2021/01/30 05:15:32;;;;;;;21.00;12.30;;;-0.30;90.80;;;;;;4961960;28;20035;-79
2021/01/30 05:18:29;;;;;;;18.75;11.88;;;-0.20;90.90;;;;;;4997362;28;20107;-77
2021/01/30 05:21:11;;;;;;;15.90;11.68;;;-0.30;90.90;;;;;;5016777;28;20045;-78
2021/01/30 05:23:38;;;;;;;15.85;10.35;;;-0.40;91.00;;;;;;5023883;28;20108;-78
2021/01/30 05:26:42;;;;;;;17.35;11.45;;;-0.40;91.10;;;;;;4992151;28;20068;-78
2021/01/30 05:29:23;;;;;;;16.70;11.82;;;-0.40;91.00;;;;;;5022149;28;20026;-78
2021/01/30 05:32:24;;;;;;;15.43;11.13;;;-0.50;91.10;;;;;;5024463;28;20102;-78
2021/01/30 05:35:17;;;;;;;16.40;10.98;;;-0.50;91.20;;;;;;5033127;28;20025;-78
2021/01/30 05:37:52;;;;;;;15.27;10.65;;;-0.50;91.50;;;;;;5040918;28;20029;-77
2021/01/30 05:40:42;;;;;;;16.33;10.80;;;-0.50;91.30;;;;;;5040902;28;20032;-78
2021/01/30 05:43:26;;;;;;;14.50;10.55;;;-0.50;91.20;;;;;;5043976;28;20100;-79
2021/01/30 05:45:56;;;;;;;15.38;10.07;;;-0.50;91.40;;;;;;5043395;28;20103;-79
2021/01/30 05:48:26;;;;;;;13.90;9.38;;;-0.40;91.30;;;;;;5040652;28;20531;-78
2021/01/30 05:51:07;;;;;;;14.27;9.98;;;-0.50;90.90;;;;;;5024850;28;20045;-78
2021/01/30 05:53:33;;;;;;;13.35;9.80;;;-0.50;91.10;;;;;;5024433;28;20067;-79
2021/01/30 05:55:59;;;;;;;13.30;9.30;;;-0.40;91.00;;;;;;5044629;23;20049;-61
2021/01/30 05:58:27;;;;;;;14.82;10.05;;;-0.30;90.80;;;;;;5054553;28;20109;-62
2021/01/30 06:01:19;;;;;;;14.88;9.45;;;-0.30;90.60;;;;;;5068912;28;20025;-63
2021/01/30 06:04:08;;;;;;;15.10;9.80;;;-0.20;90.40;;;;;;5074062;28;20025;-62
2021/01/30 06:06:55;;;;;;;14.07;9.73;;;-0.30;90.30;;;;;;5051561;28;20048;-63
2021/01/30 06:09:41;;;;;;;14.00;10.35;;;-0.30;90.50;;;;;;5058665;28;20032;-63
2021/01/30 06:12:23;;;;;;;19.75;11.68;;;-0.40;90.70;;;;;;5074176;28;20032;-63
2021/01/30 06:14:50;;;;;;;15.18;10.35;;;-0.40;90.70;;;;;;5065784;28;20040;-63
2021/01/30 06:17:21;;;;;;;18.63;11.63;;;-0.30;90.70;;;;;;5053722;28;20069;-63
2021/01/30 06:20:00;;;;;;;18.75;12.00;;;-0.40;90.70;;;;;;5054035;28;20064;-62
2021/01/30 06:22:26;;;;;;;20.55;11.93;;;-0.40;90.60;;;;;;5052769;28;20021;-63
2021/01/30 06:24:51;;;;;;;17.30;11.80;;;-0.30;90.50;;;;;;5060499;28;20131;-63
2021/01/30 06:27:42;;;;;;;22.27;13.63;;;-0.30;90.40;;;;;;5073922;28;20032;-64
2021/01/30 06:30:37;;;;;;;23.00;14.35;;;-0.30;90.30;;;;;;5063765;28;20040;-63
2021/01/30 06:33:16;;;;;;;24.73;14.73;;;-0.30;90.40;;;;;;5031366;28;20045;-62
2021/01/30 06:35:42;;;;;;;22.30;15.00;;;-0.40;90.30;;;;;;5065865;28;20040;-62
2021/01/30 06:38:16;;;;;;;24.50;15.07;;;-0.30;90.50;;;;;;5073523;28;20086;-61
2021/01/30 06:40:57;;;;;;;23.27;15.98;;;-0.40;90.30;;;;;;5070607;28;20029;-63
2021/01/30 06:43:29;;;;;;;28.45;18.60;;;-0.40;90.50;;;;;;5073350;28;20036;-62
2021/01/30 06:46:17;;;;;;;25.38;16.17;;;-0.30;90.60;;;;;;5058410;28;20032;-62
2021/01/30 06:48:54;;;;;;;27.40;17.60;;;-0.20;90.30;;;;;;5052023;28;20040;-61
2021/01/30 06:51:35;;;;;;;28.00;18.13;;;-0.20;90.30;;;;;;5069437;28;20123;-63
2021/01/30 06:54:19;;;;;;;26.38;16.20;;;-0.40;90.60;;;;;;5073025;28;20083;-63
2021/01/30 06:56:53;;;;;;;30.27;17.53;;;-0.30;90.40;;;;;;5072283;28;20363;-62
2021/01/30 06:59:25;;;;;;;30.08;18.88;;;-0.30;90.50;;;;;;5073290;28;20032;-61
2021/01/30 07:01:52;;;;;;;31.73;17.80;;;-0.30;90.70;;;;;;5067827;28;20016;-61
2021/01/30 07:04:36;;;;;;;28.25;17.33;;;-0.30;90.30;;;;;;5072714;28;20020;-62
2021/01/30 07:07:34;;;;;;;31.20;17.50;;;-0.20;90.40;;;;;;5053097;28;20411;-63
2021/01/30 07:10:38;;;;;;;30.15;17.98;;;-0.30;90.30;;;;;;5055773;28;20036;-62
2021/01/30 07:13:38;;;;;;;30.88;17.15;;;-0.40;90.80;;;;;;5034983;28;20171;-62
2021/01/30 07:16:32;;;;;;;28.65;17.20;;;-0.40;90.70;;;;;;5071013;28;20068;-63
2021/01/30 07:19:09;;;;;;;34.67;18.35;;;-0.40;91.00;;;;;;5072462;28;20028;-62
2021/01/30 07:21:46;;;;;;;27.88;17.23;;;-0.40;90.70;;;;;;5057801;28;20448;-62
2021/01/30 07:24:30;;;;;;;26.52;17.33;;;-0.30;90.90;;;;;;5052478;28;20057;-62
2021/01/30 07:27:16;;;;;;;28.70;17.92;;;-0.30;90.80;;;;;;5069824;28;20085;-63
2021/01/30 07:29:48;;;;;;;31.92;18.80;;;-0.30;90.80;;;;;;5065437;28;20068;-64
2021/01/30 07:32:29;;;;;;;28.45;17.70;;;-0.30;90.60;;;;;;5070800;28;20557;-63
2021/01/30 07:35:03;;;;;;;27.42;18.38;;;-0.10;90.60;;;;;;5072109;28;20119;-63
2021/01/30 07:38:16;;;;;;;30.92;18.00;;;-0.20;90.60;;;;;;5052879;28;20091;-64
2021/01/30 07:41:05;;;;;;;27.75;17.27;;;-0.20;90.30;;;;;;5034959;28;20033;-63
2021/01/30 07:43:37;;;;;;;26.83;17.42;;;-0.10;90.40;;;;;;5071203;28;20501;-63
2021/01/30 07:46:29;;;;;;;31.27;18.10;;;0.00;90.20;;;;;;5064175;28;20472;-63
2021/01/30 07:48:59;;;;;;;27.73;17.70;;;-0.10;90.10;;;;;;5050224;28;20045;-63
2021/01/30 07:51:42;;;;;;;31.98;18.65;;;0.00;90.40;;;;;;5054312;28;20032;-63
2021/01/30 07:54:07;;;;;;;29.13;19.05;;;0.00;90.00;;;;;;5052022;28;20542;-63
2021/01/30 07:57:04;;;;;;;30.17;18.92;;;0.10;90.00;;;;;;5062795;28;20040;-63
2021/01/30 07:59:41;;;;;;;28.98;18.95;;;0.10;89.30;;;;;;5052296;28;20515;-64
2021/01/30 08:02:35;;;;;;;27.27;17.98;;;0.20;89.50;;;;;;5071632;28;20040;-63
2021/01/30 08:05:28;;;;;;;33.25;17.75;;;0.20;89.80;;;;;;5072106;28;20039;-62
2021/01/30 08:08:02;;;;;;;37.28;18.20;;;0.00;89.40;;;;;;5051666;28;20032;-62
2021/01/30 08:10:57;;;;;;;33.40;19.70;;;0.10;90.10;;;;;;5053811;28;20098;-62
2021/01/30 08:13:38;;;;;;;33.45;17.95;;;0.20;89.30;;;;;;5072662;28;20094;-62
2021/01/30 08:16:18;;;;;;;34.90;19.50;;;0.10;90.00;;;;;;5065115;28;20025;-62
2021/01/30 08:18:46;;;;;;;29.75;17.83;;;0.20;89.20;;;;;;5051785;28;20025;-63
2021/01/30 08:21:24;;;;;;;27.23;16.75;;;0.30;88.20;;;;;;5058131;28;20052;-63
2021/01/30 08:24:02;;;;;;;30.05;17.08;;;0.30;88.50;;;;;;5071684;28;20028;-63
2021/01/30 08:26:43;;;;;;;31.98;17.58;;;0.30;88.70;;;;;;5062507;28;20024;-63
2021/01/30 08:29:18;;;;;;;28.27;17.27;;;0.30;88.80;;;;;;5051698;28;20033;-63
2021/01/30 08:31:44;;;;;;;27.75;16.52;;;0.40;88.60;;;;;;5052734;28;20029;-63
2021/01/30 08:34:12;;;;;;;28.65;18.13;;;0.30;88.70;;;;;;5051676;28;20036;-63
2021/01/30 08:36:43;;;;;;;32.00;19.15;;;0.40;88.70;;;;;;5059039;28;20207;-62
2021/01/30 08:39:28;;;;;;;32.28;18.38;;;0.50;88.50;;;;;;5071047;28;20020;-62
2021/01/30 08:42:17;;;;;;;32.05;18.20;;;0.30;88.80;;;;;;5070001;28;20131;-56
2021/01/30 08:44:53;;;;;;;31.27;18.95;;;0.10;90.00;;;;;;5071603;28;20519;-57
2021/01/30 08:47:24;;;;;;;35.65;19.00;;;0.20;90.10;;;;;;5049768;28;20389;-57
2021/01/30 08:50:11;;;;;;;31.83;19.42;;;0.10;90.10;;;;;;5051644;28;20037;-57
2021/01/30 08:52:42;;;;;;;35.45;20.13;;;0.00;90.30;;;;;;5066829;28;20048;-57
2021/01/30 08:55:33;;;;;;;34.70;19.02;;;0.10;90.00;;;;;;5069934;28;20132;-58
2021/01/30 08:57:58;;;;;;;31.77;17.30;;;-0.10;90.00;;;;;;5052736;28;20033;-57
2021/01/30 09:00:27;;;;;;;33.63;19.80;;;0.00;90.20;;;;;;5054055;28;20043;-59
2021/01/30 09:02:57;;;;;;;29.75;18.02;;;0.10;90.30;;;;;;5054631;28;20040;-60
2021/01/30 09:05:26;;;;;;;31.33;18.55;;;0.20;90.10;;;;;;5051270;28;20414;-55
2021/01/30 09:07:56;;;;;;;31.75;18.58;;;0.30;90.10;;;;;;5067055;28;20081;-57
2021/01/30 09:10:22;;;;;;;31.65;17.90;;;0.40;89.60;;;;;;5071895;28;20036;-59
2021/01/30 09:12:57;;;;;;;27.77;17.10;;;0.30;89.70;;;;;;5057558;28;20044;-54
2021/01/30 09:15:38;;;;;;;33.17;18.15;;;0.20;89.50;;;;;;5052605;28;20043;-57
2021/01/30 09:18:17;;;;;;;34.08;17.15;;;0.20;89.80;;;;;;5068039;28;20490;-55
2021/01/30 09:21:06;;;;;;;28.08;16.58;;;0.40;89.30;;;;;;5076741;28;20487;-57
2021/01/30 09:23:54;;;;;;;28.15;16.65;;;0.40;88.90;;;;;;5041928;28;20037;-56
2021/01/30 09:26:57;;;;;;;30.48;16.85;;;0.20;89.10;;;;;;5053058;28;20024;-56
2021/01/30 09:29:44;;;;;;;30.67;17.25;;;0.10;89.60;;;;;;5072279;28;20060;-57
2021/01/30 09:32:13;;;;;;;29.50;16.55;;;0.10;90.20;;;;;;5064820;28;20087;-55
2021/01/30 09:34:55;;;;;;;27.00;15.50;;;0.10;90.30;;;;;;5053744;28;20037;-61
2021/01/30 09:37:31;;;;;;;24.92;15.38;;;0.20;90.30;;;;;;5062787;28;20032;-60
2021/01/30 09:39:58;;;;;;;26.33;15.25;;;0.30;90.30;;;;;;5075526;28;20151;-59
2021/01/30 09:42:24;;;;;;;24.85;14.93;;;0.40;89.30;;;;;;5073266;28;20037;-58
2021/01/30 09:45:15;;;;;;;22.75;14.65;;;0.50;88.50;;;;;;5074936;28;20028;-58
2021/01/30 09:47:48;;;;;;;24.95;14.43;;;0.50;87.70;;;;;;5065047;28;20055;-55
2021/01/30 09:50:18;;;;;;;25.83;15.27;;;0.40;88.70;;;;;;5057742;28;20097;-55
2021/01/30 09:52:54;;;;;;;25.55;16.52;;;0.50;89.40;;;;;;5074662;28;20067;-58
2021/01/30 09:55:22;;;;;;;30.98;15.43;;;0.60;88.10;;;;;;5074969;28;20182;-59
2021/01/30 09:57:49;;;;;;;23.77;14.60;;;0.60;88.10;;;;;;5073725;28;20119;-57
2021/01/30 10:00:36;;;;;;;25.80;14.63;;;0.70;87.30;;;;;;5075434;28;20115;-57
2021/01/30 10:03:09;;;;;;;21.85;12.95;;;0.70;87.40;;;;;;5062313;28;20123;-59
2021/01/30 10:05:37;;;;;;;20.95;12.65;;;0.80;87.10;;;;;;5055371;28;20033;-57
2021/01/30 10:08:29;;;;;;;20.83;12.45;;;0.70;86.50;;;;;;5070805;28;20036;-55
2021/01/30 10:11:15;;;;;;;19.50;12.35;;;0.80;87.00;;;;;;5068867;28;20108;-57
2021/01/30 10:13:54;;;;;;;22.38;12.45;;;0.90;86.50;;;;;;5065331;28;20506;-56
2021/01/30 10:16:23;;;;;;;18.42;11.88;;;1.00;87.20;;;;;;5073740;28;20135;-60
2021/01/30 10:18:54;;;;;;;17.67;11.52;;;1.30;87.90;;;;;;5054672;28;20037;-57
2021/01/30 10:21:35;;;;;;;17.83;11.40;;;1.60;86.90;;;;;;5054148;28;20064;-60
2021/01/30 10:24:16;;;;;;;17.67;11.02;;;1.90;86.80;;;;;;5074548;28;20060;-56
2021/01/30 10:26:42;;;;;;;15.93;10.32;;;2.10;82.40;;;;;;5071355;28;20036;-58
2021/01/30 10:29:11;;;;;;;18.50;11.65;;;1.70;81.00;;;;;;5052758;28;20040;-57
2021/01/30 10:31:43;;;;;;;17.17;10.85;;;1.30;82.70;;;;;;5055137;28;20040;-59
2021/01/30 10:34:14;;;;;;;19.10;12.52;;;1.20;83.50;;;;;;5073901;28;20040;-57
2021/01/30 10:36:47;;;;;;;16.95;11.40;;;1.30;84.00;;;;;;5067840;28;20036;-57
2021/01/30 10:39:16;;;;;;;16.05;10.65;;;1.20;83.90;;;;;;5071888;28;20032;-59
2021/01/30 10:41:42;;;;;;;22.75;12.73;;;1.10;84.00;;;;;;5074194;28;20111;-56
2021/01/30 10:44:10;;;;;;;17.10;10.75;;;1.20;83.90;;;;;;5056060;28;20049;-57
2021/01/30 10:46:40;;;;;;;15.90;11.10;;;1.10;84.30;;;;;;5051439;28;20154;-57
2021/01/30 10:49:26;;;;;;;20.63;11.68;;;1.00;83.70;;;;;;5069966;28;20043;-55
2021/01/30 10:52:13;;;;;;;18.02;10.75;;;1.00;84.50;;;;;;5073553;28;20036;-56
2021/01/30 10:54:43;;;;;;;15.68;9.80;;;1.10;84.80;;;;;;5072460;28;20036;-54
2021/01/30 10:57:12;;;;;;;15.40;9.70;;;1.00;84.40;;;;;;5073181;28;20520;-59
2021/01/30 11:00:23;;;;;;;14.00;9.63;;;0.90;83.60;;;;;;5072719;28;20028;-57
2021/01/30 11:02:51;;;;;;;12.90;8.48;;;0.90;83.90;;;;;;5053200;28;20036;-59
2021/01/30 11:05:19;;;;;;;14.77;8.60;;;0.90;84.20;;;;;;5070651;28;20043;-55
2021/01/30 11:07:54;;;;;;;14.75;9.82;;;0.90;84.00;;;;;;5072970;28;20059;-63
2021/01/30 11:10:19;;;;;;;;;;;1.00;84.20;;;;;;5082444;28;20051;-55
2021/01/30 11:12:45;;;;;;;12.63;8.45;;;1.00;84.00;;;;;;5090513;28;19931;-58
2021/01/30 11:15:16;;;;;;;12.93;9.00;;;1.00;83.70;;;;;;5081081;28;20040;-59
2021/01/30 11:17:42;;;;;;;13.98;9.70;;;1.00;83.20;;;;;;5084237;28;20044;-57
2021/01/30 11:20:10;;;;;;;15.50;9.57;;;0.90;82.90;;;;;;5053105;28;20037;-60
2021/01/30 11:22:36;;;;;;;15.88;10.38;;;1.00;83.10;;;;;;5054520;28;20041;-61
2021/01/30 11:25:07;;;;;;;13.48;9.48;;;0.90;83.90;;;;;;5073271;28;20063;-59
2021/01/30 11:27:33;;;;;;;15.73;10.18;;;0.90;84.50;;;;;;5073162;28;20040;-56
2021/01/30 11:30:14;;;;;;;17.52;10.60;;;0.90;84.60;;;;;;5070564;28;20032;-54
2021/01/30 11:32:40;;;;;;;18.02;10.55;;;0.90;84.00;;;;;;5072722;28;20445;-62
2021/01/30 11:35:07;;;;;;;15.88;10.45;;;0.90;84.10;;;;;;5052773;28;20388;-57
2021/01/30 11:37:32;;;;;;;20.67;12.88;;;1.00;83.90;;;;;;5052536;28;20045;-61
2021/01/30 11:40:04;;;;;;;22.67;13.35;;;0.90;84.70;;;;;;5070554;28;20499;-59
2021/01/30 11:42:29;;;;;;;17.30;11.30;;;1.00;85.00;;;;;;5072246;28;20028;-54
2021/01/30 11:44:56;;;;;;;18.23;10.55;;;1.10;84.40;;;;;;5054000;28;20045;-55
2021/01/30 11:47:21;;;;;;;14.55;9.20;;;1.10;83.50;;;;;;5034857;28;20033;-58
2021/01/30 11:49:47;;;;;;;16.25;9.77;;;0.90;83.50;;;;;;5067256;28;20093;-55
2021/01/30 11:52:23;;;;;;;15.07;9.52;;;0.90;84.00;;;;;;5072420;28;20029;-59
2021/01/30 11:54:49;;;;;;;15.80;10.18;;;1.10;83.80;;;;;;5071972;28;20075;-57
2021/01/30 11:57:15;;;;;;;15.52;10.43;;;1.20;83.80;;;;;;5072506;28;20041;-57
2021/01/30 11:59:40;;;;;;;14.20;9.77;;;1.40;83.30;;;;;;5058020;28;20052;-61
2021/01/30 12:02:16;;;;;;;14.68;9.57;;;1.30;83.10;;;;;;5069156;28;20128;-58
2021/01/30 12:04:42;;;;;;;12.45;8.85;;;1.50;82.20;;;;;;5059355;28;20037;-56
2021/01/30 12:07:08;;;;;;;14.23;9.50;;;1.60;81.30;;;;;;5051663;28;20121;-57
2021/01/30 12:09:34;;;;;;;14.23;9.32;;;1.70;80.60;;;;;;5063943;28;20110;-59
2021/01/30 12:11:59;;;;;;;14.10;9.05;;;1.50;80.30;;;;;;5072940;28;20117;-61
2021/01/30 12:14:25;;;;;;;11.55;8.68;;;1.40;80.80;;;;;;5044598;28;20048;-59
2021/01/30 12:16:55;;;;;;;11.68;8.38;;;1.40;81.20;;;;;;5051631;28;20036;-60
2021/01/30 12:19:21;;;;;;;13.95;9.20;;;1.30;81.50;;;;;;5053087;28;20565;-61
2021/01/30 12:21:47;;;;;;;12.55;9.13;;;1.50;81.40;;;;;;5052973;28;20025;-63
2021/01/30 12:24:15;;;;;;;13.43;8.85;;;1.50;82.00;;;;;;5059297;28;20036;-60
2021/01/30 12:26:40;;;;;;;14.32;9.57;;;1.50;81.30;;;;;;5071894;28;20020;-63
2021/01/30 12:29:06;;;;;;;12.07;8.13;;;1.60;80.90;;;;;;5066090;28;20090;-63
2021/01/30 12:31:32;;;;;;;14.05;9.00;;;1.80;79.70;;;;;;5052229;28;20041;-61
2021/01/30 12:33:58;;;;;;;13.25;9.23;;;1.70;80.30;;;;;;5055103;28;20029;-63
2021/01/30 12:36:23;;;;;;;12.98;8.50;;;1.70;79.90;;;;;;5071271;28;20035;-62
2021/01/30 12:38:49;;;;;;;13.18;9.18;;;1.70;80.50;;;;;;5072709;28;20423;-61
2021/01/30 12:41:15;;;;;;;13.48;8.73;;;1.70;79.90;;;;;;5074161;28;20086;-61
2021/01/30 12:43:40;;;;;;;12.88;8.60;;;1.80;79.60;;;;;;5076825;28;20151;-65
2021/01/30 12:46:06;;;;;;;11.52;9.02;;;1.70;79.00;;;;;;5076078;28;20036;-62
2021/01/30 12:48:32;;;;;;;14.25;9.23;;;1.70;79.10;;;;;;5074471;28;20044;-62
2021/01/30 12:50:57;;;;;;;13.02;8.10;;;1.70;78.90;;;;;;5061232;28;20054;-62
2021/01/30 12:53:24;;;;;;;12.48;8.18;;;1.80;78.70;;;;;;5077452;28;20528;-62
2021/01/30 12:55:50;;;;;;;18.48;12.25;;;1.90;78.70;;;;;;5082934;28;20139;-62
2021/01/30 12:58:20;;;;;;;18.40;10.38;;;1.80;78.60;;;;;;5078202;28;20154;-61
2021/01/30 13:00:46;;;;;;;14.70;9.93;;;1.70;78.90;;;;;;5072592;28;20108;-63
2021/01/30 13:03:12;;;;;;;10.75;8.57;;;1.60;79.50;;;;;;5082721;28;20058;-62
2021/01/30 13:05:38;;;;;;;13.68;9.40;;;1.60;80.10;;;;;;5074163;28;20035;-63
2021/01/30 13:08:04;;;;;;;10.63;8.40;;;1.70;79.60;;;;;;5074884;28;20045;-63
2021/01/30 13:10:30;;;;;;;14.18;8.88;;;1.80;79.10;;;;;;5056476;28;20037;-64